| time (UTC) | temp C | wind direction | speed KPH | gust KPH | rain 1hr cm | rain 24hr cm | rain mn cm | humidity % | barometer mb |
| 20260906064005 | 26 | 356 | 1.6 | 3.2 | 0.00 | 0.00 | 0.00 | 89 | 1011.3 |
| 20260906063005 | 26 | 27 | 0.0 | 0.0 | 0.00 | 0.00 | 0.00 | 87 | 1011.3 |
| 20260906061005 | 26 | 27 | 0.0 | 1.6 | 0.00 | 0.00 | 0.00 | 84 | 1011.1 |
| 20260906055004 | 26 | 28 | 1.6 | 4.8 | 0.00 | 0.00 | 0.00 | 84 | 1011.2 |
| 20260906054005 | 26 | 24 | 1.6 | 3.2 | 0.00 | 0.00 | 0.00 | 83 | 1011.2 |
| 20260906053005 | 26 | 20 | 0.0 | 3.2 | 0.00 | 0.00 | 0.00 | 84 | 1011.4 |
| 20260906052005 | 26 | 25 | 1.6 | 4.8 | 0.00 | 0.00 | 0.00 | 83 | 1011.4 |
| 20260906051005 | 26 | 323 | 1.6 | 4.8 | 0.00 | 0.00 | 0.00 | 83 | 1011.5 |
| 20260906050004 | 27 | 310 | 3.2 | 3.2 | 0.00 | 0.00 | 0.00 | 82 | 1011.5 |
| 20260906045004 | 27 | 272 | 0.0 | 4.8 | 0.00 | 0.00 | 0.00 | 82 | 1011.5 |
| 20260906044005 | 27 | 284 | 0.0 | 0.0 | 0.00 | 0.00 | 0.00 | 81 | 1011.5 |
| 20260906042005 | 27 | 284 | 0.0 | 3.2 | 0.00 | 0.00 | 0.00 | 79 | 1011.5 |
| 20260906041005 | 28 | 321 | 1.6 | 3.2 | 0.00 | 0.00 | 0.00 | 76 | 1011.4 |
| 20260906040005 | 28 | 3 | 1.6 | 4.8 | 0.00 | 0.00 | 0.00 | 76 | 1011.3 |
| 20260906035005 | 28 | 18 | 3.2 | 3.2 | 0.00 | 0.00 | 0.00 | 77 | 1011.4 |
| 20260906034009 | 28 | 329 | 1.6 | 3.2 | 0.00 | 0.00 | 0.00 | 77 | 1011.5 |
| 20260906033004 | 28 | 291 | 1.6 | 4.8 | 0.00 | 0.00 | 0.00 | 77 | 1011.5 |
| 20260906031004 | 28 | 291 | 1.6 | 4.8 | 0.00 | 0.00 | 0.00 | 76 | 1011.4 |
| 20260906025005 | 28 | 334 | 1.6 | 8.0 | 0.00 | 0.00 | 0.00 | 75 | 1011.2 |
| 20260906024004 | 28 | 342 | 1.6 | 4.8 | 0.00 | 0.00 | 0.00 | 75 | 1011.0 |
| 20260906023005 | 28 | 311 | 3.2 | 8.0 | 0.00 | 0.00 | 0.00 | 75 | 1010.9 |
| 20260906022005 | 28 | 314 | 4.8 | 14.5 | 0.00 | 0.00 | 0.00 | 75 | 1010.8 |
| 20260906021005 | 30 | 260 | 1.6 | 9.7 | 0.00 | 0.00 | 0.00 | 72 | 1010.5 |
| 20260906020005 | 30 | 120 | 0.0 | 0.0 | 0.00 | 0.00 | 0.00 | 70 | 1010.4 |
| 20260906015007 | 30 | 120 | 0.0 | 0.0 | 0.00 | 0.00 | 0.00 | 68 | 1010.3 |
| 20260906014005 | 31 | 120 | 0.0 | 0.0 | 0.00 | 0.00 | 0.00 | 67 | 1010.1 |
| 20260906013004 | 31 | 120 | 0.0 | 0.0 | 0.00 | 0.00 | 0.00 | 67 | 1010.0 |
| 20260906012004 | 31 | 120 | 0.0 | 0.0 | 0.00 | 0.00 | 0.00 | 66 | 1009.9 |
| 20260906011004 | 31 | 120 | 0.0 | 0.0 | 0.00 | 0.00 | 0.00 | 64 | 1009.8 |
| 20260906010004 | 32 | 120 | 0.0 | 0.0 | 0.00 | 0.00 | 0.00 | 63 | 1009.8 |
| 20260906005005 | 32 | 120 | 0.0 | 0.0 | 0.00 | 0.00 | 0.00 | 62 | 1009.8 |
| 20260906003005 | 33 | 120 | 0.0 | 0.0 | 0.00 | 0.00 | 0.00 | 59 | 1009.4 |
| 20260906002004 | 33 | 120 | 0.0 | 0.0 | 0.00 | 0.00 | 0.00 | 57 | 1009.6 |
| 20260906001005 | 34 | 120 | 0.0 | 0.0 | 0.00 | 0.00 | 0.00 | 56 | 1009.7 |
| 20260906000005 | 35 | 120 | 0.0 | 0.0 | 0.00 | 0.00 | 0.00 | 53 | 1009.7 |
| 20260905235005 | 35 | 120 | 1.6 | 3.2 | 0.00 | 0.00 | 0.00 | 50 | 1009.7 |
| 20260905234004 | 36 | 125 | 0.0 | 1.6 | 0.00 | 0.00 | 0.00 | 49 | 1009.7 |
| 20260905231004 | 36 | 96 | 0.0 | 8.0 | 0.00 | 0.00 | 0.00 | 46 | 1009.4 |
| 20260905230005 | 36 | 87 | 1.6 | 4.8 | 0.00 | 0.00 | 0.00 | 45 | 1009.4 |
| 20260905224005 | 37 | 131 | 3.2 | 9.7 | 0.00 | 0.00 | 0.00 | 43 | 1009.3 |
| 20260905222004 | 38 | 54 | 3.2 | 11.3 | 0.00 | 0.00 | 0.00 | 42 | 1009.4 |
| 20260905220005 | 38 | 94 | 3.2 | 4.8 | 0.00 | 0.00 | 0.00 | 42 | 1009.6 |
| 20260905215004 | 38 | 321 | 1.6 | 8.0 | 0.00 | 0.00 | 0.00 | 41 | 1009.7 |
| 20260905214004 | 38 | 139 | 3.2 | 9.7 | 0.00 | 0.00 | 0.00 | 41 | 1009.7 |
| 20260905213005 | 38 | 158 | 4.8 | 11.3 | 0.00 | 0.00 | 0.00 | 40 | 1009.8 |
| 20260905212005 | 39 | 140 | 3.2 | 9.7 | 0.00 | 0.00 | 0.00 | 40 | 1009.9 |
| 20260905211004 | 38 | 85 | 1.6 | 8.0 | 0.00 | 0.00 | 0.00 | 40 | 1010.0 |
| 20260905210004 | 38 | 238 | 4.8 | 11.3 | 0.00 | 0.00 | 0.00 | 38 | 1010.1 |
| 20260905204004 | 39 | 175 | 4.8 | 12.9 | 0.00 | 0.00 | 0.00 | 39 | 1010.4 |
| 20260905203005 | 39 | 59 | 4.8 | 14.5 | 0.00 | 0.00 | 0.00 | 40 | 1010.4 |
| 20260905202004 | 38 | 4 | 1.6 | 9.7 | 0.00 | 0.00 | 0.00 | 41 | 1010.6 |
| 20260905201004 | 39 | 74 | 4.8 | 11.3 | 0.00 | 0.00 | 0.00 | 40 | 1010.8 |
| 20260905200004 | 39 | 43 | 6.4 | 12.9 | 0.00 | 0.00 | 0.00 | 40 | 1010.8 |
| 20260905195005 | 39 | 135 | 3.2 | 12.9 | 0.00 | 0.00 | 0.00 | 40 | 1011.0 |
| 20260905194005 | 39 | 177 | 3.2 | 11.3 | 0.00 | 0.00 | 0.00 | 41 | 1011.2 |
| 20260905193005 | 38 | 95 | 4.8 | 12.9 | 0.00 | 0.00 | 0.00 | 41 | 1011.4 |
| 20260905192005 | 39 | 61 | 4.8 | 12.9 | 0.00 | 0.00 | 0.00 | 40 | 1011.4 |
| 20260905191004 | 40 | 141 | 3.2 | 12.9 | 0.00 | 0.00 | 0.00 | 39 | 1011.6 |
| 20260905190007 | 40 | 5 | 3.2 | 9.7 | 0.00 | 0.00 | 0.00 | 40 | 1011.8 |
| 20260905185004 | 39 | 278 | 4.8 | 11.3 | 0.00 | 0.00 | 0.00 | 40 | 1011.9 |
| 20260905184004 | 39 | 137 | 4.8 | 11.3 | 0.00 | 0.00 | 0.00 | 41 | 1012.0 |
| 20260905183004 | 39 | 48 | 3.2 | 12.9 | 0.00 | 0.00 | 0.00 | 41 | 1012.1 |
| 20260905182004 | 39 | 95 | 3.2 | 14.5 | 0.00 | 0.00 | 0.00 | 41 | 1012.3 |
| 20260905181004 | 38 | 147 | 8.0 | 14.5 | 0.00 | 0.00 | 0.00 | 42 | 1012.4 |
| 20260905180004 | 37 | 322 | 3.2 | 14.5 | 0.00 | 0.00 | 0.00 | 42 | 1012.6 |
| 20260905175005 | 38 | 283 | 6.4 | 12.9 | 0.00 | 0.00 | 0.00 | 41 | 1012.7 |
| 20260905173004 | 38 | 220 | 4.8 | 12.9 | 0.00 | 0.00 | 0.00 | 42 | 1012.9 |
| 20260905172004 | 38 | 125 | 3.2 | 11.3 | 0.00 | 0.00 | 0.00 | 43 | 1012.9 |
| 20260905170004 | 39 | 118 | 4.8 | 12.9 | 0.00 | 0.00 | 0.00 | 42 | 1013.1 |
| 20260905165004 | 38 | 94 | 8.0 | 12.9 | 0.00 | 0.00 | 0.00 | 45 | 1013.3 |
| 20260905164004 | 38 | 113 | 3.2 | 9.7 | 0.00 | 0.00 | 0.00 | 45 | 1013.4 |
| 20260905163005 | 38 | 108 | 3.2 | 11.3 | 0.00 | 0.00 | 0.00 | 47 | 1013.6 |
| 20260905162004 | 38 | 157 | 3.2 | 9.7 | 0.00 | 0.00 | 0.00 | 49 | 1013.6 |
| 20260905161004 | 37 | 110 | 3.2 | 9.7 | 0.00 | 0.00 | 0.00 | 51 | 1013.8 |
| 20260905160004 | 37 | 149 | 1.6 | 8.0 | 0.00 | 0.00 | 0.00 | 50 | 1013.9 |
| 20260905155004 | 37 | 175 | 3.2 | 9.7 | 0.00 | 0.00 | 0.00 | 52 | 1013.9 |
| 20260905154005 | 37 | 156 | 4.8 | 9.7 | 0.00 | 0.00 | 0.00 | 52 | 1014.0 |
| 20260905153005 | 36 | 107 | 3.2 | 8.0 | 0.00 | 0.00 | 0.00 | 53 | 1014.0 |
| 20260905152005 | 36 | 128 | 4.8 | 9.7 | 0.00 | 0.00 | 0.00 | 54 | 1014.0 |
| 20260905151005 | 35 | 178 | 3.2 | 9.7 | 0.00 | 0.00 | 0.00 | 57 | 1014.0 |
| 20260905145005 | 34 | 213 | 0.0 | 8.0 | 0.00 | 0.00 | 0.00 | 59 | 1014.0 |
| 20260905144005 | 34 | 146 | 3.2 | 9.7 | 0.00 | 0.00 | 0.00 | 58 | 1014.0 |
| 20260905143006 | 35 | 35 | 0.0 | 4.8 | 0.00 | 0.00 | 0.00 | 58 | 1013.9 |
| 20260905142005 | 33 | 68 | 1.6 | 3.2 | 0.00 | 0.00 | 0.00 | 62 | 1014.0 |
| 20260905140005 | 32 | 137 | 0.0 | 4.8 | 0.00 | 0.00 | 0.00 | 64 | 1014.2 |
| 20260905135005 | 32 | 295 | 1.6 | 3.2 | 0.00 | 0.00 | 0.00 | 65 | 1014.3 |
| 20260905134007 | 31 | 292 | 1.6 | 3.2 | 0.00 | 0.00 | 0.00 | 66 | 1014.4 |
| 20260905133005 | 31 | 313 | 0.0 | 1.6 | 0.00 | 0.00 | 0.00 | 69 | 1014.4 |
| 20260905132005 | 30 | 295 | 0.0 | 0.0 | 0.00 | 0.00 | 0.00 | 72 | 1014.5 |
| 20260905131005 | 29 | 295 | 0.0 | 0.0 | 0.00 | 0.00 | 0.00 | 76 | 1014.4 |
| 20260905130005 | 28 | 295 | 0.0 | 0.0 | 0.00 | 0.00 | 0.00 | 79 | 1014.4 |
| 20260905125005 | 27 | 295 | 0.0 | 0.0 | 0.00 | 0.00 | 0.00 | 81 | 1014.4 |
| 20260905124005 | 26 | 295 | 0.0 | 0.0 | 0.00 | 0.00 | 0.00 | 86 | 1014.4 |
| 20260905123005 | 25 | 295 | 0.0 | 0.0 | 0.00 | 0.00 | 0.00 | 92 | 1014.4 |
| 20260905122005 | 23 | 295 | 0.0 | 0.0 | 0.00 | 0.00 | 0.00 | 97 | 1014.3 |
| 20260905121005 | 22 | 295 | 0.0 | 0.0 | 0.00 | 0.00 | 0.00 | 99 | 1014.3 |
| 20260905120005 | 22 | 295 | 0.0 | 0.0 | 0.00 | 0.00 | 0.00 | 99 | 1014.2 |
| 20260905115005 | 22 | 295 | 0.0 | 0.0 | 0.00 | 0.00 | 0.00 | 99 | 1014.0 |
| 20260905114007 | 22 | 295 | 0.0 | 0.0 | 0.00 | 0.00 | 0.00 | 99 | 1013.9 |
| 20260905113005 | 22 | 295 | 0.0 | 0.0 | 0.00 | 0.00 | 0.00 | 99 | 1013.8 |
| 20260905112005 | 22 | 295 | 0.0 | 0.0 | 0.00 | 0.00 | 0.00 | 98 | 1013.6 |
| 20260905111005 | 22 | 295 | 0.0 | 0.0 | 0.00 | 0.00 | 0.00 | 98 | 1013.5 |
| 20260905110005 | 22 | 295 | 0.0 | 0.0 | 0.00 | 0.00 | 0.00 | 98 | 1013.3 |
| 20260905104005 | 22 | 295 | 0.0 | 0.0 | 0.00 | 0.00 | 0.00 | 98 | 1013.1 |
| 20260905102005 | 22 | 295 | 0.0 | 4.8 | 0.00 | 0.00 | 0.00 | 98 | 1013.3 |
| 20260905101005 | 23 | 243 | 0.0 | 3.2 | 0.00 | 0.00 | 0.00 | 97 | 1013.2 |
| 20260905100005 | 23 | 203 | 0.0 | 0.0 | 0.00 | 0.00 | 0.00 | 97 | 1013.3 |
| 20260905095005 | 23 | 203 | 0.0 | 0.0 | 0.00 | 0.00 | 0.00 | 97 | 1013.3 |
| 20260905094005 | 23 | 203 | 0.0 | 0.0 | 0.00 | 0.00 | 0.00 | 97 | 1013.1 |
| 20260905093006 | 23 | 203 | 0.0 | 0.0 | 0.00 | 0.00 | 0.00 | 97 | 1012.9 |
| 20260905092005 | 23 | 203 | 0.0 | 0.0 | 0.00 | 0.00 | 0.00 | 97 | 1012.9 |
| 20260905091007 | 23 | 203 | 0.0 | 0.0 | 0.00 | 0.00 | 0.00 | 97 | 1012.9 |
| 20260905090005 | 23 | 203 | 0.0 | 0.0 | 0.00 | 0.00 | 0.00 | 96 | 1012.9 |
| 20260905085005 | 23 | 203 | 0.0 | 0.0 | 0.00 | 0.00 | 0.00 | 96 | 1012.8 |
| 20260905084005 | 24 | 203 | 0.0 | 0.0 | 0.00 | 0.00 | 0.00 | 95 | 1012.8 |
| 20260905083004 | 24 | 203 | 0.0 | 0.0 | 0.00 | 0.00 | 0.00 | 95 | 1012.9 |
| 20260905082005 | 24 | 203 | 0.0 | 0.0 | 0.00 | 0.00 | 0.00 | 95 | 1012.8 |
| 20260905081005 | 24 | 203 | 0.0 | 0.0 | 0.00 | 0.00 | 0.00 | 93 | 1012.8 |
| 20260905080004 | 24 | 203 | 0.0 | 0.0 | 0.00 | 0.00 | 0.00 | 94 | 1012.9 |
| 20260905075005 | 24 | 203 | 0.0 | 0.0 | 0.00 | 0.00 | 0.00 | 94 | 1012.8 |
| 20260905073005 | 24 | 203 | 0.0 | 0.0 | 0.00 | 0.00 | 0.00 | 94 | 1012.7 |
| 20260905072005 | 24 | 203 | 0.0 | 0.0 | 0.00 | 0.00 | 0.00 | 93 | 1012.9 |
| 20260905071005 | 25 | 203 | 0.0 | 1.6 | 0.00 | 0.00 | 0.00 | 92 | 1012.9 |
| 20260905065005 | 25 | 147 | 0.0 | 0.0 | 0.00 | 0.00 | 0.00 | 90 | 1012.9 |